createdAt,value
2023-01-29T00:00:32.002Z,24.03
2023-01-29T00:01:31.991Z,24.03
2023-01-29T00:02:31.959Z,24.03
2023-01-29T00:03:31.957Z,24.03
2023-01-29T00:04:31.937Z,24.03
2023-01-29T00:05:31.928Z,24.03
2023-01-29T00:06:31.923Z,24.04
2023-01-29T00:07:31.952Z,24.04
2023-01-29T00:08:31.898Z,24.04
2023-01-29T00:09:31.906Z,24.03
2023-01-29T00:10:31.925Z,24.03
2023-01-29T00:11:31.911Z,24.03
2023-01-29T00:12:31.863Z,24.04
2023-01-29T00:13:31.882Z,24.04
2023-01-29T00:14:31.888Z,24.03
2023-01-29T00:15:31.840Z,24.04
2023-01-29T00:16:31.849Z,24.03
2023-01-29T00:17:31.858Z,24.03
2023-01-29T00:18:31.882Z,24.03
2023-01-29T00:19:31.836Z,24.03
2023-01-29T00:20:31.835Z,24.03
2023-01-29T00:21:31.839Z,24.03
2023-01-29T00:22:31.940Z,24.03
2023-01-29T00:23:31.837Z,24.03
2023-01-29T00:24:31.824Z,24.03
2023-01-29T00:25:31.823Z,24.02
2023-01-29T00:26:31.828Z,24.02
2023-01-29T00:27:31.787Z,24.02
2023-01-29T00:28:31.835Z,24.02
2023-01-29T00:29:31.844Z,24.02
2023-01-29T00:30:31.856Z,24.02
2023-01-29T00:31:31.987Z,24.01
2023-01-29T00:32:31.896Z,24.01
2023-01-29T00:33:31.952Z,24.01
2023-01-29T00:34:31.942Z,24.02
2023-01-29T00:35:31.961Z,24.01
2023-01-29T00:36:31.967Z,24.02
2023-01-29T00:37:31.997Z,24.02
2023-01-29T00:38:32.054Z,24.01
2023-01-29T00:39:46.762Z,24.01
2023-01-29T00:40:33.035Z,24.01
2023-01-29T00:41:32.058Z,24.01
2023-01-29T00:42:32.046Z,24.01
2023-01-29T00:43:32.042Z,24.01
2023-01-29T00:44:32.053Z,24.01
2023-01-29T00:45:32.029Z,24.01
2023-01-29T00:46:32.048Z,24.00
2023-01-29T00:47:32.012Z,24.00
2023-01-29T00:48:32.021Z,24.01
2023-01-29T00:49:31.985Z,24.00
2023-01-29T00:50:31.960Z,24.01
2023-01-29T00:51:31.940Z,24.01
2023-01-29T00:52:31.997Z,24.01
2023-01-29T00:53:31.938Z,24.01
2023-01-29T00:54:33.143Z,24.01
2023-01-29T00:55:31.942Z,24.02
2023-01-29T00:56:31.935Z,24.02
2023-01-29T00:57:31.924Z,24.01
2023-01-29T00:58:31.955Z,24.01
2023-01-29T00:59:31.927Z,24.02
2023-01-29T01:00:32.025Z,24.02
2023-01-29T01:01:31.911Z,24.02
2023-01-29T01:02:31.919Z,24.01
2023-01-29T01:03:31.925Z,24.02
2023-01-29T01:04:34.104Z,24.01
2023-01-29T01:05:31.928Z,24.02
2023-01-29T01:06:31.948Z,24.01
2023-01-29T01:07:31.951Z,24.01
2023-01-29T01:08:31.922Z,24.02
2023-01-29T01:09:31.953Z,24.01
2023-01-29T01:10:31.914Z,24.01
2023-01-29T01:11:31.928Z,24.01
2023-01-29T01:12:31.925Z,24.01
2023-01-29T01:13:31.942Z,24.01
2023-01-29T01:14:31.877Z,24.01
2023-01-29T01:15:31.895Z,24.01
2023-01-29T01:16:31.940Z,24.01
2023-01-29T01:17:31.871Z,24.01
2023-01-29T01:18:31.872Z,24.02
2023-01-29T01:19:31.866Z,24.01
2023-01-29T01:20:31.836Z,24.01
2023-01-29T01:21:31.859Z,24.02
2023-01-29T01:22:31.847Z,24.01
2023-01-29T01:23:31.841Z,24.01
2023-01-29T01:24:31.864Z,24.01
2023-01-29T01:25:31.804Z,24.01
2023-01-29T01:26:31.810Z,24.01
2023-01-29T01:27:31.786Z,24.00
2023-01-29T01:28:31.790Z,24.01
2023-01-29T01:29:31.792Z,24.00
2023-01-29T01:30:31.790Z,24.00
2023-01-29T01:31:31.825Z,24.01
2023-01-29T01:32:31.805Z,24.01
2023-01-29T01:33:31.755Z,24.01
2023-01-29T01:34:31.759Z,24.01
2023-01-29T01:35:31.743Z,24.01
2023-01-29T01:36:31.736Z,24.00
2023-01-29T01:37:31.731Z,24.00
2023-01-29T01:38:31.733Z,24.00
2023-01-29T01:39:31.748Z,24.00
2023-01-29T01:40:31.709Z,24.01
2023-01-29T01:41:31.728Z,24.01
2023-01-29T01:42:32.075Z,24.00
2023-01-29T01:43:31.723Z,24.01
2023-01-29T01:44:31.702Z,24.01
2023-01-29T02:56:31.181Z,24.00
2023-01-29T02:57:31.230Z,24.01
2023-01-29T02:58:31.195Z,24.01
2023-01-29T02:59:31.183Z,24.01
2023-01-29T03:00:31.200Z,24.00
2023-01-29T03:01:31.133Z,24.01
2023-01-29T03:02:31.261Z,24.00
2023-01-29T03:03:31.121Z,24.01
2023-01-29T03:04:31.174Z,24.00
2023-01-29T03:05:31.157Z,24.00
2023-01-29T03:06:31.155Z,24.01
2023-01-29T03:07:31.158Z,24.00
2023-01-29T03:08:31.166Z,24.01
2023-01-29T03:09:31.123Z,24.00
2023-01-29T03:10:31.111Z,24.00
2023-01-29T03:11:31.126Z,24.01
2023-01-29T03:12:31.121Z,24.01
2023-01-29T03:13:31.159Z,24.01
2023-01-29T03:14:31.133Z,24.00
2023-01-29T03:15:31.182Z,24.00
2023-01-29T03:16:31.286Z,24.00
2023-01-29T03:17:31.223Z,24.00
2023-01-29T03:18:31.191Z,24.01
2023-01-29T03:19:31.200Z,24.00
2023-01-29T03:20:31.224Z,24.00
2023-01-29T03:21:31.286Z,24.01
2023-01-29T03:50:31.652Z,24.00
2023-01-29T03:55:31.716Z,24.00
2023-01-29T03:56:31.748Z,24.00
2023-01-29T03:57:31.741Z,24.00
2023-01-29T03:58:31.732Z,24.00
2023-01-29T03:59:31.750Z,23.99
2023-01-29T04:00:31.797Z,24.00
2023-01-29T04:01:31.834Z,24.00
2023-01-29T04:02:31.797Z,23.99
2023-01-29T04:03:31.847Z,24.00
2023-01-29T04:04:31.840Z,24.00
2023-01-29T04:05:31.862Z,23.99
2023-01-29T04:06:31.858Z,23.99
2023-01-29T04:07:31.890Z,23.99
2023-01-29T04:08:31.933Z,23.99
2023-01-29T04:09:31.903Z,23.99
2023-01-29T04:10:31.920Z,23.99
2023-01-29T04:11:31.910Z,23.98
2023-01-29T04:12:31.932Z,23.99
2023-01-29T04:13:31.968Z,23.99
2023-01-29T04:14:32.008Z,23.99
2023-01-29T04:15:31.969Z,23.99
2023-01-29T04:16:32.035Z,23.99
2023-01-29T04:17:32.031Z,23.99
2023-01-29T04:18:32.016Z,24.00
2023-01-29T04:19:32.052Z,23.99
2023-01-29T04:20:32.093Z,23.99
2023-01-29T04:21:32.104Z,24.00
2023-01-29T04:22:32.099Z,24.00
2023-01-29T04:23:32.118Z,24.00
2023-01-29T04:24:32.122Z,24.00
2023-01-29T04:25:32.168Z,23.99
2023-01-29T04:26:32.189Z,23.98
2023-01-29T04:27:32.190Z,23.99
2023-01-29T04:28:32.186Z,23.99
2023-01-29T04:29:32.216Z,23.99
2023-01-29T04:30:32.199Z,23.98
2023-01-29T04:31:32.346Z,23.98
2023-01-29T04:32:32.298Z,23.98
2023-01-29T04:33:32.293Z,23.98
2023-01-29T04:34:32.303Z,23.99
2023-01-29T04:35:32.304Z,23.98
2023-01-29T04:36:32.376Z,23.98
2023-01-29T04:37:32.346Z,23.98
2023-01-29T04:38:32.377Z,23.97
2023-01-29T04:39:32.388Z,23.98
2023-01-29T04:40:32.401Z,23.98
2023-01-29T04:41:32.422Z,23.97
2023-01-29T04:42:32.437Z,23.97
2023-01-29T04:43:32.450Z,23.97
2023-01-29T04:44:32.453Z,23.97
2023-01-29T04:45:32.536Z,23.97
2023-01-29T04:46:32.516Z,23.97
2023-01-29T04:47:32.646Z,23.97
2023-01-29T04:48:32.549Z,23.97
2023-01-29T04:49:32.559Z,23.97
2023-01-29T04:50:32.634Z,23.97
2023-01-29T04:51:32.597Z,23.97
2023-01-29T04:52:32.643Z,23.96
2023-01-29T04:53:32.617Z,23.96
2023-01-29T04:54:32.658Z,23.97
2023-01-29T04:55:32.654Z,23.96
2023-01-29T04:57:32.675Z,23.96
2023-01-29T11:37:41.719Z,26.48
2023-01-29T11:38:41.771Z,26.47
2023-01-29T11:39:41.751Z,26.48
2023-01-29T11:40:41.760Z,26.48
2023-01-29T11:41:41.809Z,26.48
2023-01-29T11:42:41.800Z,26.48
2023-01-29T11:43:41.836Z,26.48
2023-01-29T11:44:41.850Z,26.49
2023-01-29T11:45:41.882Z,26.49
2023-01-29T11:46:41.910Z,26.49
2023-01-29T11:47:41.882Z,26.49
2023-01-29T11:48:41.925Z,26.47
2023-01-29T11:49:41.923Z,26.47
2023-01-29T11:50:41.950Z,26.47
2023-01-29T11:51:41.972Z,26.46
2023-01-29T11:52:41.984Z,26.47
2023-01-29T11:53:42.073Z,26.46
2023-01-29T11:54:42.016Z,26.47
2023-01-29T11:55:50.607Z,26.48
2023-01-29T11:56:43.029Z,26.47
2023-01-29T11:57:41.989Z,26.48
2023-01-29T11:58:42.008Z,26.47
2023-01-29T11:59:42.014Z,26.46
2023-01-29T12:00:41.977Z,26.46
2023-01-29T12:01:41.974Z,26.44
2023-01-29T12:02:42.057Z,26.44
2023-01-29T12:03:42.000Z,26.43
2023-01-29T12:04:41.959Z,26.42
2023-01-29T12:05:42.022Z,26.42
2023-01-29T12:06:41.941Z,26.42
2023-01-29T12:07:41.932Z,26.42
2023-01-29T12:08:41.950Z,26.42
2023-01-29T12:09:41.941Z,26.42
2023-01-29T12:10:41.930Z,26.42
2023-01-29T12:11:41.936Z,26.43
2023-01-29T12:12:41.915Z,26.45
2023-01-29T12:13:41.913Z,26.44
2023-01-29T12:14:41.895Z,26.44
2023-01-29T12:15:41.896Z,26.44
2023-01-29T12:16:41.886Z,26.44
2023-01-29T12:17:41.871Z,26.44
2023-01-29T12:18:41.874Z,26.44
2023-01-29T12:19:41.882Z,26.44
2023-01-29T12:20:41.848Z,26.44
2023-01-29T12:21:41.883Z,26.44
2023-01-29T12:22:41.833Z,26.43
2023-01-29T12:23:41.875Z,26.42
2023-01-29T12:24:41.845Z,26.42
2023-01-29T12:25:41.877Z,26.43
2023-01-29T12:26:41.934Z,26.43
2023-01-29T12:27:42.050Z,26.43
2023-01-29T12:28:41.936Z,26.42
2023-01-29T12:29:41.984Z,26.42
2023-01-29T12:37:42.213Z,26.36
2023-01-29T12:39:42.256Z,26.35
2023-01-29T12:40:42.264Z,26.34
2023-01-29T12:41:43.618Z,26.34
2023-01-29T12:42:42.311Z,26.36
2023-01-29T12:43:42.321Z,26.36
2023-01-29T12:44:42.369Z,26.35
2023-01-29T12:45:42.398Z,26.35
2023-01-29T12:46:42.440Z,26.33
2023-01-29T12:47:42.419Z,26.34
2023-01-29T12:48:42.464Z,26.33
2023-01-29T12:49:42.522Z,26.32
2023-01-29T12:50:42.547Z,26.30
2023-01-29T12:51:42.545Z,26.29
2023-01-29T12:52:42.582Z,26.29
2023-01-29T12:53:42.641Z,26.28
2023-01-29T12:54:42.671Z,26.27
2023-01-29T12:55:42.683Z,26.26
2023-01-29T12:56:42.720Z,26.25
2023-01-29T12:57:42.767Z,26.25
2023-01-29T12:58:42.797Z,26.24
2023-01-29T12:59:42.840Z,26.23
2023-01-29T13:05:43.050Z,26.21
2023-01-29T13:11:43.294Z,26.14
2023-01-29T13:12:43.328Z,26.13
2023-01-29T13:13:43.417Z,26.13
2023-01-29T13:14:43.448Z,26.12
2023-01-29T13:15:43.610Z,26.10
2023-01-29T13:16:43.603Z,26.09
2023-01-29T13:17:43.653Z,26.08
2023-01-29T13:18:43.652Z,26.07
2023-01-29T13:19:43.705Z,26.06
2023-01-29T13:20:43.776Z,26.05
2023-01-29T13:25:44.007Z,25.98
2023-01-29T17:09:51.727Z,24.60
2023-01-29T17:10:51.732Z,24.61
2023-01-29T17:11:51.796Z,24.61
2023-01-29T17:31:52.986Z,24.56
2023-01-29T19:56:01.755Z,24.45
2023-01-29T19:57:01.827Z,24.44
2023-01-29T19:58:01.872Z,24.44
2023-01-29T19:59:01.953Z,24.44
2023-01-29T20:00:02.006Z,24.44
2023-01-29T20:01:02.072Z,24.43
2023-01-29T20:02:02.152Z,24.43
2023-01-29T20:03:02.136Z,24.43
2023-01-29T20:04:02.233Z,24.44
2023-01-29T20:05:02.270Z,24.43
2023-01-29T20:06:02.326Z,24.43
2023-01-29T20:07:02.361Z,24.43
2023-01-29T20:08:02.437Z,24.42
2023-01-29T20:09:02.486Z,24.43
2023-01-29T20:10:02.524Z,24.43
2023-01-29T20:11:02.619Z,24.43
2023-01-29T20:12:02.652Z,24.43
2023-01-29T20:13:02.699Z,24.43
2023-01-29T20:14:02.776Z,24.43
2023-01-29T20:15:02.847Z,24.43
2023-01-29T20:16:02.919Z,24.42
2023-01-29T20:17:02.886Z,24.43
2023-01-29T20:18:02.902Z,24.43
2023-01-29T20:19:14.504Z,24.43
2023-01-29T20:20:03.977Z,24.42
2023-01-29T20:21:02.948Z,24.43
2023-01-29T20:22:02.920Z,24.43
2023-01-29T20:23:02.940Z,24.43
2023-01-29T20:24:02.917Z,24.42
2023-01-29T20:25:02.923Z,24.43
2023-01-29T20:26:02.907Z,24.43
2023-01-29T20:27:02.900Z,24.43
2023-01-29T20:28:02.926Z,24.43
2023-01-29T20:29:02.938Z,24.42
2023-01-29T20:30:02.988Z,24.42
2023-01-29T20:31:03.132Z,24.42
2023-01-29T20:32:03.094Z,24.42
2023-01-29T20:33:03.153Z,24.43
2023-01-29T20:34:03.216Z,24.42
2023-01-29T20:35:03.259Z,24.42
2023-01-29T20:36:03.316Z,24.42
2023-01-29T20:37:03.331Z,24.42
2023-01-29T20:38:03.414Z,24.41
2023-01-29T20:39:03.393Z,24.42
2023-01-29T20:40:03.462Z,24.42
2023-01-29T20:41:03.531Z,24.41
2023-01-29T20:42:03.531Z,24.42
2023-01-29T20:43:03.594Z,24.42
2023-01-29T20:44:03.634Z,24.41
2023-01-29T20:45:03.703Z,24.42
2023-01-29T20:46:03.829Z,24.42
2023-01-29T20:47:03.791Z,24.42
2023-01-29T20:48:03.822Z,24.42
2023-01-29T20:49:03.869Z,24.42
2023-01-29T20:50:03.934Z,24.42
2023-01-29T20:51:03.997Z,24.41
2023-01-29T20:52:04.085Z,24.42
2023-01-29T20:53:04.153Z,24.42
2023-01-29T20:54:04.211Z,24.41
2023-01-29T20:55:04.276Z,24.42
2023-01-29T20:56:04.771Z,24.42
2023-01-29T20:57:04.334Z,24.41
2023-01-29T20:58:06.402Z,24.42
2023-01-29T20:59:04.473Z,24.42
2023-01-29T21:00:04.457Z,24.42
2023-01-29T21:01:04.570Z,24.42
2023-01-29T21:02:04.674Z,24.41
2023-01-29T21:03:04.606Z,24.42
2023-01-29T21:04:04.685Z,24.41
2023-01-29T21:05:04.727Z,24.42
2023-01-29T21:06:04.811Z,24.42
2023-01-29T21:07:04.829Z,24.42
2023-01-29T21:08:04.849Z,24.41
2023-01-29T21:09:04.873Z,24.41
2023-01-29T21:10:04.928Z,24.41
2023-01-29T21:11:04.979Z,24.42
2023-01-29T21:12:04.991Z,24.42
2023-01-29T21:13:05.058Z,24.41
2023-01-29T21:14:05.080Z,24.41
2023-01-29T21:15:05.118Z,24.41
2023-01-29T21:16:05.175Z,24.41
2023-01-29T21:17:05.220Z,24.41
2023-01-29T21:18:05.297Z,24.41
2023-01-29T21:19:05.296Z,24.41
2023-01-29T21:20:05.347Z,24.41
2023-01-29T21:21:05.420Z,24.42
2023-01-29T21:22:05.429Z,24.41
2023-01-29T21:23:07.168Z,24.41
2023-01-29T21:24:05.488Z,24.41
2023-01-29T23:33:12.235Z,24.41
2023-01-29T23:34:11.803Z,24.40
2023-01-29T23:35:11.882Z,24.40
2023-01-29T23:36:11.897Z,24.40
2023-01-29T23:37:11.921Z,24.41
2023-01-29T23:38:11.988Z,24.41
2023-01-29T23:39:12.031Z,24.41
2023-01-29T23:40:12.051Z,24.40
2023-01-29T23:41:12.116Z,24.40
2023-01-29T23:42:12.166Z,24.41
2023-01-29T23:43:12.180Z,24.39
2023-01-29T23:44:12.291Z,24.39
2023-01-29T23:45:12.287Z,24.40
2023-01-29T23:46:12.373Z,24.39
2023-01-29T23:47:12.387Z,24.40
2023-01-29T23:48:12.400Z,24.39
2023-01-29T23:49:12.521Z,24.39
2023-01-29T23:50:12.572Z,24.40
2023-01-29T23:51:12.636Z,24.39
2023-01-29T23:52:12.657Z,24.41
2023-01-29T23:53:12.726Z,24.40
2023-01-29T23:54:12.800Z,24.41
2023-01-29T23:55:12.871Z,24.41
2023-01-29T23:56:12.888Z,24.40
2023-01-29T23:57:12.957Z,24.40
2023-01-29T23:58:12.983Z,24.41
2023-01-29T23:59:13.126Z,24.41
